sensor_id;sensor_type;location;lat;lon;timestamp;temperature;humidity
76750;DHT22;66447;35.844;14.468;2023-06-14T00:02:09;25.09;118.99
76750;DHT22;66447;35.844;14.468;2023-06-14T00:17:10;26.21;118.99
76750;DHT22;66447;35.844;14.468;2023-06-14T00:32:11;27.08;118.99
76750;DHT22;66447;35.844;14.468;2023-06-14T00:47:12;26.28;118.99
76750;DHT22;66447;35.844;14.468;2023-06-14T01:02:13;26.85;118.99
76750;DHT22;66447;35.844;14.468;2023-06-14T01:17:15;27.04;118.99
76750;DHT22;66447;35.844;14.468;2023-06-14T01:32:18;25.47;118.99
76750;DHT22;66447;35.844;14.468;2023-06-14T01:47:19;27.08;118.99
76750;DHT22;66447;35.844;14.468;2023-06-14T02:02:20;26.25;118.99
76750;DHT22;66447;35.844;14.468;2023-06-14T02:17:21;27.35;118.99
76750;DHT22;66447;35.844;14.468;2023-06-14T02:32:22;25.75;118.99
76750;DHT22;66447;35.844;14.468;2023-06-14T02:47:23;26.23;118.99
76750;DHT22;66447;35.844;14.468;2023-06-14T03:02:25;26.45;118.99
76750;DHT22;66447;35.844;14.468;2023-06-14T03:17:26;25.15;118.99
76750;DHT22;66447;35.844;14.468;2023-06-14T03:32:30;25.37;118.99
76750;DHT22;66447;35.844;14.468;2023-06-14T03:47:34;25.27;118.99
76750;DHT22;66447;35.844;14.468;2023-06-14T04:02:35;26.09;118.99
76750;DHT22;66447;35.844;14.468;2023-06-14T04:17:37;26.66;118.99
76750;DHT22;66447;35.844;14.468;2023-06-14T04:32:38;27.43;118.99
76750;DHT22;66447;35.844;14.468;2023-06-14T04:47:39;28.33;118.99
76750;DHT22;66447;35.844;14.468;2023-06-14T05:02:41;26.30;118.99
76750;DHT22;66447;35.844;14.468;2023-06-14T05:17:41;27.07;118.99
76750;DHT22;66447;35.844;14.468;2023-06-14T05:32:43;27.55;118.99
76750;DHT22;66447;35.844;14.468;2023-06-14T05:47:43;27.97;118.99
76750;DHT22;66447;35.844;14.468;2023-06-14T06:02:45;29.12;118.99
76750;DHT22;66447;35.844;14.468;2023-06-14T06:17:47;28.40;118.99
76750;DHT22;66447;35.844;14.468;2023-06-14T06:32:48;29.72;118.99
76750;DHT22;66447;35.844;14.468;2023-06-14T06:47:49;28.56;118.99
76750;DHT22;66447;35.844;14.468;2023-06-14T07:02:50;28.32;118.99
76750;DHT22;66447;35.844;14.468;2023-06-14T07:17:52;28.71;118.99
76750;DHT22;66447;35.844;14.468;2023-06-14T07:32:53;28.89;118.99
76750;DHT22;66447;35.844;14.468;2023-06-14T07:47:54;31.75;118.99
76750;DHT22;66447;35.844;14.468;2023-06-14T08:02:55;32.53;118.99
76750;DHT22;66447;35.844;14.468;2023-06-14T08:17:59;32.18;118.99
76750;DHT22;66447;35.844;14.468;2023-06-14T08:33:01;33.47;118.99
76750;DHT22;66447;35.844;14.468;2023-06-14T08:48:03;35.01;118.99
76750;DHT22;66447;35.844;14.468;2023-06-14T09:03:04;37.33;118.99
76750;DHT22;66447;35.844;14.468;2023-06-14T09:18:06;35.88;118.99
76750;DHT22;66447;35.844;14.468;2023-06-14T09:33:07;35.99;118.99
76750;DHT22;66447;35.844;14.468;2023-06-14T09:48:08;36.24;118.99
76750;DHT22;66447;35.844;14.468;2023-06-14T10:03:14;32.32;118.99
76750;DHT22;66447;35.844;14.468;2023-06-14T10:19:27;29.77;118.99
76750;DHT22;66447;35.844;14.468;2023-06-14T10:34:09;31.89;118.99
76750;DHT22;66447;35.844;14.468;2023-06-14T10:49:10;31.80;118.99
76750;DHT22;66447;35.844;14.468;2023-06-14T11:04:13;33.29;118.99
76750;DHT22;66447;35.844;14.468;2023-06-14T11:19:14;31.35;118.99
76750;DHT22;66447;35.844;14.468;2023-06-14T11:34:17;32.84;118.99
76750;DHT22;66447;35.844;14.468;2023-06-14T11:49:19;32.24;118.99
76750;DHT22;66447;35.844;14.468;2023-06-14T12:04:24;32.48;118.99
76750;DHT22;66447;35.844;14.468;2023-06-14T12:19:26;34.11;118.99
76750;DHT22;66447;35.844;14.468;2023-06-14T12:34:27;32.67;118.99
76750;DHT22;66447;35.844;14.468;2023-06-14T12:49:28;30.05;118.99
76750;DHT22;66447;35.844;14.468;2023-06-14T13:04:29;33.15;118.99
76750;DHT22;66447;35.844;14.468;2023-06-14T13:19:30;33.04;118.99
76750;DHT22;66447;35.844;14.468;2023-06-14T13:34:31;32.22;118.99
76750;DHT22;66447;35.844;14.468;2023-06-14T13:49:32;32.71;118.99
76750;DHT22;66447;35.844;14.468;2023-06-14T14:04:35;32.77;118.99
76750;DHT22;66447;35.844;14.468;2023-06-14T14:19:36;35.60;118.99
76750;DHT22;66447;35.844;14.468;2023-06-14T14:34:37;30.95;118.99
76750;DHT22;66447;35.844;14.468;2023-06-14T14:49:37;31.66;118.99
76750;DHT22;66447;35.844;14.468;2023-06-14T15:04:39;30.06;118.99
76750;DHT22;66447;35.844;14.468;2023-06-14T15:19:39;30.32;118.99
76750;DHT22;66447;35.844;14.468;2023-06-14T15:34:41;30.38;118.99
76750;DHT22;66447;35.844;14.468;2023-06-14T15:49:42;30.85;118.99
76750;DHT22;66447;35.844;14.468;2023-06-14T16:04:42;30.45;118.99
76750;DHT22;66447;35.844;14.468;2023-06-14T16:19:44;28.52;118.99
76750;DHT22;66447;35.844;14.468;2023-06-14T16:34:45;28.87;118.99
76750;DHT22;66447;35.844;14.468;2023-06-14T16:49:46;26.64;118.99
76750;DHT22;66447;35.844;14.468;2023-06-14T17:04:47;26.21;118.99
76750;DHT22;66447;35.844;14.468;2023-06-14T17:19:48;25.75;118.99
76750;DHT22;66447;35.844;14.468;2023-06-14T17:34:49;25.15;118.99
76750;DHT22;66447;35.844;14.468;2023-06-14T17:49:50;25.48;118.99
76750;DHT22;66447;35.844;14.468;2023-06-14T18:04:54;25.48;118.99
76750;DHT22;66447;35.844;14.468;2023-06-14T18:19:55;25.49;118.99
76750;DHT22;66447;35.844;14.468;2023-06-14T18:34:56;25.33;118.99
76750;DHT22;66447;35.844;14.468;2023-06-14T18:49:57;25.47;118.99
76750;DHT22;66447;35.844;14.468;2023-06-14T19:04:58;25.39;118.99
76750;DHT22;66447;35.844;14.468;2023-06-14T19:19:59;25.43;118.99
76750;DHT22;66447;35.844;14.468;2023-06-14T19:35:00;25.31;118.99
76750;DHT22;66447;35.844;14.468;2023-06-14T19:50:02;25.63;118.99
76750;DHT22;66447;35.844;14.468;2023-06-14T20:05:03;25.23;118.99
76750;DHT22;66447;35.844;14.468;2023-06-14T20:20:05;25.48;118.99
76750;DHT22;66447;35.844;14.468;2023-06-14T20:35:06;25.00;118.99
76750;DHT22;66447;35.844;14.468;2023-06-14T20:50:07;25.47;118.99
76750;DHT22;66447;35.844;14.468;2023-06-14T21:05:11;25.57;118.99
76750;DHT22;66447;35.844;14.468;2023-06-14T21:20:13;25.14;118.99
76750;DHT22;66447;35.844;14.468;2023-06-14T21:35:14;25.27;118.99
76750;DHT22;66447;35.844;14.468;2023-06-14T21:50:17;25.45;118.99
76750;DHT22;66447;35.844;14.468;2023-06-14T22:05:18;25.52;118.99
76750;DHT22;66447;35.844;14.468;2023-06-14T22:20:19;25.09;118.99
76750;DHT22;66447;35.844;14.468;2023-06-14T22:35:20;24.94;118.99
76750;DHT22;66447;35.844;14.468;2023-06-14T22:50:21;25.44;118.99
76750;DHT22;66447;35.844;14.468;2023-06-14T23:05:23;25.02;118.99
76750;DHT22;66447;35.844;14.468;2023-06-14T23:20:24;25.23;118.99
76750;DHT22;66447;35.844;14.468;2023-06-14T23:35:25;25.03;118.99
76750;DHT22;66447;35.844;14.468;2023-06-14T23:50:26;25.25;118.99
